Time;durP1;ratioP1;P1;durP2;ratioP2;P2;SDS_P1;SDS_P2;PMS_P1;PMS_P2;Temp;Humidity;BMP_temperature;BMP_pressure;BME280_temperature;BME280_humidity;BME280_pressure;Samples;Min_cycle;Max_cycle;Signal;HPM_P1;HPM_P2
2023/06/16 00:02:12;;;;;;;12.25;8.48;;;19.50;99.90;;;;;;5049923;28;20291;-83
2023/06/16 00:04:40;;;;;;;15.80;8.80;;;19.40;99.90;;;;;;5049961;28;20203;-84
2023/06/16 00:07:09;;;;;;;10.60;9.23;;;19.40;99.90;;;;;;5051109;28;20202;-84
2023/06/16 00:09:36;;;;;;;9.85;8.75;;;19.40;99.90;;;;;;5050707;28;20261;-83
2023/06/16 00:12:03;;;;;;;9.73;8.82;;;19.40;99.90;;;;;;5050817;28;20234;-84
2023/06/16 00:14:30;;;;;;;9.85;8.45;;;19.40;99.90;;;;;;5049714;28;20206;-84
2023/06/16 00:16:59;;;;;;;11.52;8.70;;;19.30;99.90;;;;;;5042511;28;20678;-76
2023/06/16 00:19:27;;;;;;;9.00;8.25;;;19.30;99.90;;;;;;5050024;28;20267;-77
2023/06/16 00:21:54;;;;;;;9.18;8.27;;;19.30;99.90;;;;;;5049381;28;20207;-77
2023/06/16 00:24:21;;;;;;;10.20;9.18;;;19.30;99.90;;;;;;5050139;28;20210;-78
2023/06/16 00:26:48;;;;;;;9.48;8.48;;;19.30;99.90;;;;;;5049145;28;20242;-84
2023/06/16 00:29:14;;;;;;;9.90;8.30;;;19.30;99.90;;;;;;5050449;28;20269;-87
2023/06/16 00:31:41;;;;;;;9.57;8.68;;;19.30;99.90;;;;;;5050922;28;20641;-90
2023/06/16 00:34:10;;;;;;;9.45;8.52;;;19.20;99.90;;;;;;5050441;28;20253;-76
2023/06/16 00:36:37;;;;;;;9.23;8.25;;;19.20;99.90;;;;;;5049157;28;20246;-69
2023/06/16 00:39:04;;;;;;;17.48;8.85;;;19.20;99.90;;;;;;5049765;28;20260;-79
2023/06/16 00:41:30;;;;;;;10.80;8.63;;;19.20;99.90;;;;;;5050204;28;20240;-67
2023/06/16 00:43:57;;;;;;;10.13;9.05;;;19.10;99.90;;;;;;5049697;28;20245;-76
2023/06/16 00:46:27;;;;;;;16.90;10.38;;;19.10;99.90;;;;;;5049078;28;20250;-78
2023/06/16 00:48:56;;;;;;;9.70;8.80;;;19.10;99.90;;;;;;5047303;28;20227;-75
2023/06/16 00:51:27;;;;;;;9.85;8.57;;;19.10;99.90;;;;;;5049950;28;20258;-81
2023/06/16 00:53:54;;;;;;;8.93;8.05;;;19.00;99.90;;;;;;5049286;28;20243;-76
2023/06/16 00:56:23;;;;;;;9.40;8.18;;;19.10;99.90;;;;;;5049167;28;20333;-70
2023/06/16 00:58:53;;;;;;;11.50;10.30;;;19.10;99.90;;;;;;5048398;28;20256;-74
2023/06/16 01:01:20;;;;;;;9.25;8.35;;;19.10;99.90;;;;;;5050147;28;20245;-70
2023/06/16 01:03:50;;;;;;;9.00;8.20;;;19.00;99.90;;;;;;5049365;28;20238;-69
2023/06/16 01:06:31;;;;;;;9.32;8.52;;;18.90;99.90;;;;;;5047239;28;20217;-71
2023/06/16 01:09:07;;;;;;;10.00;9.00;;;18.90;99.90;;;;;;5044170;28;20230;-73
2023/06/16 01:11:40;;;;;;;9.43;8.50;;;18.90;99.90;;;;;;5054133;28;20661;-69
2023/06/16 01:14:14;;;;;;;11.35;9.02;;;19.00;99.90;;;;;;5053538;28;20245;-74
2023/06/16 01:16:42;;;;;;;10.43;8.52;;;19.00;99.90;;;;;;5051509;28;20230;-71
2023/06/16 01:19:14;;;;;;;10.65;8.32;;;18.90;99.90;;;;;;5053686;28;20306;-75
2023/06/16 01:21:51;;;;;;;9.50;8.10;;;18.90;99.90;;;;;;5052822;28;20210;-74
2023/06/16 01:24:23;;;;;;;10.00;8.27;;;18.80;99.90;;;;;;5053190;28;20327;-75
2023/06/16 01:26:53;;;;;;;10.77;9.50;;;18.80;99.90;;;;;;5051434;28;20203;-76
2023/06/16 01:29:23;;;;;;;9.80;8.15;;;18.80;99.90;;;;;;5052545;28;20651;-74
2023/06/16 01:31:52;;;;;;;10.02;9.20;;;18.80;99.90;;;;;;5052071;28;20659;-70
2023/06/16 01:34:20;;;;;;;10.02;9.13;;;18.70;99.90;;;;;;5052989;28;20740;-76
2023/06/16 01:36:48;;;;;;;10.07;9.10;;;18.60;99.90;;;;;;5051436;28;20210;-70
2023/06/16 01:39:17;;;;;;;9.52;8.63;;;18.60;99.90;;;;;;5053326;28;20235;-76
2023/06/16 01:41:47;;;;;;;9.90;8.93;;;18.60;99.90;;;;;;5044518;28;20213;-75
2023/06/16 01:44:14;;;;;;;9.23;8.20;;;18.70;99.90;;;;;;5051991;28;20559;-70
2023/06/16 01:46:43;;;;;;;9.85;8.93;;;18.70;99.90;;;;;;5045978;28;20581;-78
2023/06/16 01:49:10;;;;;;;9.43;8.48;;;18.70;99.90;;;;;;5047491;28;20270;-72
2023/06/16 01:51:37;;;;;;;9.98;9.07;;;18.60;99.90;;;;;;5043088;28;20250;-74
2023/06/16 01:54:05;;;;;;;10.68;9.57;;;18.60;99.90;;;;;;5052929;28;20239;-79
2023/06/16 01:56:31;;;;;;;11.25;8.65;;;18.50;99.90;;;;;;5052291;28;20666;-74
2023/06/16 01:59:00;;;;;;;10.20;8.65;;;18.60;99.90;;;;;;5039119;28;20242;-71
2023/06/16 02:01:30;;;;;;;10.48;9.35;;;18.60;99.90;;;;;;5052712;28;20657;-75
2023/06/16 02:04:03;;;;;;;10.00;9.10;;;18.60;99.90;;;;;;5052301;28;20227;-70
2023/06/16 02:06:37;;;;;;;12.52;9.27;;;18.60;99.90;;;;;;5051870;28;20202;-71
2023/06/16 02:09:07;;;;;;;9.95;9.05;;;18.60;99.90;;;;;;5051698;28;20229;-75
2023/06/16 02:11:35;;;;;;;13.50;9.88;;;18.50;99.90;;;;;;5052952;28;20214;-73
2023/06/16 02:14:04;;;;;;;11.27;10.02;;;18.50;99.90;;;;;;5052595;28;20234;-74
2023/06/16 02:16:36;;;;;;;10.18;9.38;;;18.50;99.90;;;;;;5042957;28;20724;-76
2023/06/16 02:19:03;;;;;;;12.20;10.82;;;18.50;99.90;;;;;;5051900;28;20246;-70
2023/06/16 02:21:30;;;;;;;11.20;8.35;;;18.30;99.90;;;;;;5051148;28;20203;-74
2023/06/16 02:23:57;;;;;;;10.55;9.10;;;18.30;99.90;;;;;;5051956;28;20261;-69
2023/06/16 02:26:24;;;;;;;10.00;9.00;;;18.30;99.90;;;;;;5051354;28;20739;-73
2023/06/16 02:28:51;;;;;;;10.52;9.43;;;18.30;99.90;;;;;;5051195;28;20222;-69
2023/06/16 02:31:20;;;;;;;9.63;8.55;;;18.20;99.90;;;;;;5047468;28;20242;-74
2023/06/16 02:33:50;;;;;;;11.65;9.38;;;18.20;99.90;;;;;;5051617;28;20214;-72
2023/06/16 02:36:17;;;;;;;8.60;7.72;;;18.10;99.90;;;;;;5051261;28;20246;-69
2023/06/16 02:38:45;;;;;;;9.90;8.88;;;18.10;99.90;;;;;;5051686;28;20723;-68
2023/06/16 02:41:12;;;;;;;10.85;9.82;;;18.10;99.90;;;;;;5050656;28;20720;-69
2023/06/16 02:43:39;;;;;;;9.52;8.52;;;18.10;99.90;;;;;;5050885;28;20234;-69
2023/06/16 02:46:06;;;;;;;9.30;8.40;;;18.10;99.90;;;;;;5051022;28;20242;-69
2023/06/16 02:48:34;;;;;;;9.20;8.18;;;18.00;99.90;;;;;;5049441;28;20207;-69
2023/06/16 02:51:01;;;;;;;9.65;8.65;;;18.10;99.90;;;;;;5037360;28;20346;-69
2023/06/16 02:53:29;;;;;;;10.57;9.57;;;18.10;99.90;;;;;;5049886;28;20241;-73
2023/06/16 02:55:56;;;;;;;9.35;8.15;;;18.10;99.90;;;;;;5048233;28;20206;-70
2023/06/16 02:58:23;;;;;;;9.73;8.73;;;18.20;99.90;;;;;;5044804;28;20209;-74
2023/06/16 03:00:50;;;;;;;12.50;9.75;;;18.20;99.90;;;;;;5050231;28;20230;-69
2023/06/16 03:03:17;;;;;;;9.55;8.60;;;18.10;99.90;;;;;;5051274;28;20206;-69
2023/06/16 03:05:46;;;;;;;10.35;9.27;;;18.00;99.90;;;;;;5049949;28;20293;-71
2023/06/16 03:08:12;;;;;;;9.35;8.43;;;17.90;99.90;;;;;;5039366;28;20242;-70
2023/06/16 03:10:39;;;;;;;11.65;10.18;;;17.80;99.90;;;;;;5046168;28;20261;-68
2023/06/16 03:13:06;;;;;;;10.07;9.10;;;17.80;99.90;;;;;;5051136;28;20238;-68
2023/06/16 03:15:34;;;;;;;9.80;8.82;;;17.80;99.90;;;;;;5050428;28;20713;-74
2023/06/16 03:18:01;;;;;;;9.00;8.10;;;17.80;99.90;;;;;;5050815;28;20230;-77
2023/06/16 03:20:28;;;;;;;9.57;8.57;;;17.80;99.90;;;;;;5047680;28;20765;-73
2023/06/16 03:22:56;;;;;;;9.55;8.45;;;17.80;99.90;;;;;;5050184;28;20246;-70
2023/06/16 03:25:23;;;;;;;11.13;8.40;;;17.90;99.90;;;;;;5049293;28;20235;-73
2023/06/16 03:27:50;;;;;;;9.65;8.75;;;18.00;99.90;;;;;;5049651;28;20210;-68
2023/06/16 03:30:17;;;;;;;11.55;10.02;;;18.10;99.90;;;;;;5050865;28;20273;-68
2023/06/16 03:32:45;;;;;;;13.10;9.20;;;18.10;99.90;;;;;;5049743;28;20307;-68
2023/06/16 03:35:13;;;;;;;8.43;7.63;;;18.10;99.90;;;;;;5051121;28;20207;-69
2023/06/16 03:37:40;;;;;;;9.50;8.70;;;18.00;99.90;;;;;;5048394;28;20574;-68
2023/06/16 03:40:09;;;;;;;10.18;9.18;;;18.00;99.90;;;;;;5050957;28;20238;-69
2023/06/16 03:42:37;;;;;;;13.43;9.27;;;18.00;99.90;;;;;;5049086;28;20305;-69
2023/06/16 03:45:05;;;;;;;9.32;8.38;;;17.90;99.90;;;;;;5045616;28;20279;-69
2023/06/16 03:47:32;;;;;;;10.88;9.80;;;17.90;99.90;;;;;;5045328;28;20238;-69
2023/06/16 03:49:59;;;;;;;12.50;8.60;;;17.80;99.90;;;;;;5036284;28;20289;-68
2023/06/16 03:52:26;;;;;;;9.85;8.88;;;17.70;99.90;;;;;;5049576;28;20257;-69
2023/06/16 03:54:53;;;;;;;10.63;9.52;;;17.70;99.90;;;;;;5049180;28;20729;-69
2023/06/16 03:57:21;;;;;;;9.65;8.75;;;17.80;99.90;;;;;;5049718;28;20198;-70
2023/06/16 03:59:48;;;;;;;11.35;10.05;;;17.80;99.90;;;;;;5050030;28;20246;-69
2023/06/16 04:02:16;;;;;;;10.27;8.88;;;17.80;99.90;;;;;;5050197;28;20199;-70
2023/06/16 04:04:45;;;;;;;9.82;8.73;;;17.80;99.90;;;;;;5048999;28;20207;-69
2023/06/16 04:07:12;;;;;;;10.43;8.65;;;17.80;99.90;;;;;;5049310;28;20736;-76
2023/06/16 04:09:39;;;;;;;11.38;9.90;;;17.80;99.90;;;;;;5049063;28;20238;-69
2023/06/16 04:12:07;;;;;;;12.07;10.60;;;17.80;99.90;;;;;;5049912;28;20207;-70
2023/06/16 04:14:35;;;;;;;10.73;9.63;;;17.80;99.90;;;;;;5050817;28;20230;-70
2023/06/16 04:17:02;;;;;;;10.75;9.05;;;17.80;99.90;;;;;;5049607;28;20204;-70
2023/06/16 04:19:30;;;;;;;8.93;8.02;;;17.80;99.90;;;;;;5049490;28;20678;-70
2023/06/16 04:21:58;;;;;;;10.60;9.55;;;17.80;99.90;;;;;;5048556;28;20241;-74
2023/06/16 04:24:25;;;;;;;11.15;10.05;;;17.70;99.90;;;;;;5049960;28;20218;-74
2023/06/16 04:26:58;;;;;;;14.23;10.23;;;17.70;99.90;;;;;;5048864;28;20209;-70
2023/06/16 04:29:25;;;;;;;10.40;9.40;;;17.70;99.90;;;;;;5050027;28;20214;-70
2023/06/16 04:31:57;;;;;;;12.95;9.57;;;17.70;99.90;;;;;;5048299;28;20682;-69
2023/06/16 04:34:24;;;;;;;9.70;8.75;;;17.60;99.90;;;;;;5049403;28;20212;-69
2023/06/16 04:36:51;;;;;;;9.57;8.77;;;17.70;99.90;;;;;;5049339;28;20679;-70
2023/06/16 04:39:18;;;;;;;10.55;8.95;;;17.70;99.90;;;;;;5050008;28;20203;-71
2023/06/16 04:41:44;;;;;;;9.38;8.48;;;17.70;99.90;;;;;;5048297;28;20238;-72
2023/06/16 04:44:11;;;;;;;9.85;8.95;;;17.80;99.90;;;;;;5046471;28;20237;-71
2023/06/16 04:46:39;;;;;;;10.73;9.63;;;17.90;99.90;;;;;;5053320;28;20307;-72
2023/06/16 04:49:07;;;;;;;9.95;8.90;;;18.00;99.90;;;;;;5046791;28;20211;-70
2023/06/16 04:51:34;;;;;;;10.10;9.10;;;18.10;99.90;;;;;;5052189;28;20319;-73
2023/06/16 04:54:01;;;;;;;17.02;11.20;;;18.20;99.90;;;;;;5039648;28;20321;-71
2023/06/16 04:56:28;;;;;;;13.15;10.95;;;18.10;99.90;;;;;;5052851;28;20649;-70
2023/06/16 04:58:54;;;;;;;11.63;10.48;;;18.10;99.90;;;;;;5052927;28;20242;-70
2023/06/16 05:01:26;;;;;;;13.52;12.27;;;18.10;99.90;;;;;;5052633;28;20312;-70
2023/06/16 05:03:53;;;;;;;12.57;11.07;;;18.00;99.90;;;;;;5052104;28;20242;-75
2023/06/16 05:06:21;;;;;;;11.85;10.75;;;18.10;99.90;;;;;;5051880;28;20280;-70
2023/06/16 05:08:48;;;;;;;12.25;10.75;;;18.00;99.90;;;;;;5052830;28;20253;-69
2023/06/16 05:11:15;;;;;;;14.45;11.25;;;18.10;99.90;;;;;;5051335;28;20323;-74
2023/06/16 05:13:42;;;;;;;11.57;10.38;;;18.10;99.90;;;;;;5052635;28;20674;-69
2023/06/16 05:16:09;;;;;;;11.73;10.57;;;18.20;99.90;;;;;;5051829;28;20225;-68
2023/06/16 05:18:35;;;;;;;13.60;10.90;;;18.30;99.90;;;;;;5052664;28;20203;-69
2023/06/16 05:21:02;;;;;;;11.57;10.35;;;18.20;99.90;;;;;;5050618;28;20209;-73
2023/06/16 05:23:31;;;;;;;14.15;10.13;;;18.20;99.90;;;;;;5053381;28;20356;-74
2023/06/16 05:25:57;;;;;;;10.07;8.70;;;18.40;99.90;;;;;;5050582;28;20665;-74
2023/06/16 05:28:24;;;;;;;10.13;8.98;;;18.40;99.90;;;;;;5053011;28;20769;-75
2023/06/16 05:30:51;;;;;;;14.00;11.05;;;18.50;99.90;;;;;;5050557;28;20314;-77
2023/06/16 05:33:18;;;;;;;10.65;9.65;;;18.50;99.90;;;;;;5051059;28;20632;-74
2023/06/16 05:35:45;;;;;;;12.77;11.55;;;18.60;99.90;;;;;;5051569;28;20203;-75
2023/06/16 05:38:12;;;;;;;10.10;8.88;;;18.70;99.90;;;;;;5051888;28;20635;-75
2023/06/16 05:40:40;;;;;;;10.93;9.60;;;18.70;99.90;;;;;;5048703;28;20241;-75
2023/06/16 05:43:07;;;;;;;10.70;9.40;;;18.70;99.90;;;;;;5051750;28;20619;-76
2023/06/16 05:45:34;;;;;;;11.05;10.05;;;18.70;99.90;;;;;;5052273;28;20245;-75
2023/06/16 05:48:01;;;;;;;13.63;11.32;;;18.70;99.90;;;;;;5051533;28;20269;-75
2023/06/16 05:50:28;;;;;;;13.32;9.90;;;18.80;99.90;;;;;;5038082;28;20235;-74
2023/06/16 05:52:55;;;;;;;12.93;11.63;;;18.90;99.90;;;;;;5044099;28;20261;-75
2023/06/16 05:55:22;;;;;;;15.88;9.85;;;19.00;99.90;;;;;;5050552;28;20239;-76
2023/06/16 05:57:50;;;;;;;13.25;10.00;;;19.10;99.90;;;;;;5052107;28;20643;-75
2023/06/16 06:00:18;;;;;;;11.68;10.48;;;19.10;99.90;;;;;;5051892;28;20217;-74
2023/06/16 06:02:45;;;;;;;11.70;10.45;;;19.20;99.90;;;;;;5052220;28;20199;-74
2023/06/16 06:05:12;;;;;;;12.88;10.50;;;19.20;99.90;;;;;;5051921;28;20245;-75
2023/06/16 06:07:38;;;;;;;12.43;10.15;;;19.30;99.90;;;;;;5051712;28;20653;-75
2023/06/16 06:10:06;;;;;;;13.60;12.20;;;19.40;99.90;;;;;;5051466;28;20272;-75
2023/06/16 06:12:33;;;;;;;13.13;9.65;;;19.30;99.90;;;;;;5052437;28;20210;-76
2023/06/16 06:15:02;;;;;;;11.32;9.15;;;19.30;99.90;;;;;;5049561;28;20218;-76
2023/06/16 06:17:29;;;;;;;13.77;11.18;;;19.50;99.90;;;;;;5052052;28;20202;-76
2023/06/16 06:19:56;;;;;;;13.90;10.75;;;19.50;99.90;;;;;;5046684;28;20694;-76
2023/06/16 06:22:23;;;;;;;13.45;10.48;;;19.60;99.90;;;;;;5047053;28;20293;-71
2023/06/16 06:24:49;;;;;;;11.10;10.02;;;19.70;99.90;;;;;;5049527;28;20242;-74
2023/06/16 06:27:16;;;;;;;16.85;10.73;;;19.80;99.90;;;;;;5051059;28;20203;-71
2023/06/16 06:29:43;;;;;;;11.52;9.95;;;19.80;99.90;;;;;;5050050;28;20203;-78
2023/06/16 06:32:12;;;;;;;12.90;10.57;;;19.90;99.90;;;;;;5051186;28;20266;-71
2023/06/16 06:34:39;;;;;;;13.00;11.13;;;20.00;99.90;;;;;;5049986;28;20207;-73
2023/06/16 06:37:06;;;;;;;12.35;11.02;;;20.10;99.90;;;;;;5051180;28;20720;-72
2023/06/16 06:39:33;;;;;;;18.35;10.10;;;20.10;99.90;;;;;;5051167;28;20199;-77
2023/06/16 06:42:00;;;;;;;11.18;10.18;;;20.20;99.90;;;;;;5049146;28;20288;-72
2023/06/16 06:44:27;;;;;;;11.05;9.95;;;20.30;99.90;;;;;;5049386;28;20207;-77
2023/06/16 06:46:55;;;;;;;14.90;10.95;;;20.30;99.90;;;;;;5048971;28;20202;-75
2023/06/16 06:49:23;;;;;;;11.57;10.15;;;20.70;99.90;;;;;;5044386;28;20731;-77
2023/06/16 06:51:51;;;;;;;14.38;9.98;;;20.70;99.90;;;;;;5045752;28;20324;-76
2023/06/16 06:54:18;;;;;;;11.75;10.52;;;20.80;99.90;;;;;;5050942;28;20214;-77
2023/06/16 06:56:45;;;;;;;34.90;17.30;;;20.90;99.90;;;;;;5048254;28;20662;-75
2023/06/16 06:59:15;;;;;;;61.45;28.50;;;21.00;99.90;;;;;;5050705;28;20207;-76
2023/06/16 07:01:44;;;;;;;12.45;11.18;;;21.20;99.90;;;;;;5050941;28;20210;-76
2023/06/16 07:04:15;;;;;;;12.95;9.35;;;21.20;99.90;;;;;;5050312;28;20289;-76
2023/06/16 07:06:44;;;;;;;12.43;10.10;;;21.30;99.90;;;;;;5049645;28;20261;-78
2023/06/16 07:09:11;;;;;;;11.00;9.98;;;21.20;99.90;;;;;;5046234;28;20230;-73
2023/06/16 07:11:40;;;;;;;12.65;10.52;;;21.30;99.90;;;;;;5050895;28;20321;-72
2023/06/16 07:14:08;;;;;;;13.27;10.70;;;21.50;99.90;;;;;;5050154;28;20202;-71
2023/06/16 07:16:37;;;;;;;12.52;9.23;;;21.50;99.90;;;;;;5050442;28;20242;-71
2023/06/16 07:19:07;;;;;;;14.23;10.73;;;21.50;99.90;;;;;;5051395;28;20211;-73
2023/06/16 07:21:38;;;;;;;16.25;10.50;;;21.50;99.90;;;;;;5051461;28;20712;-76
2023/06/16 07:24:07;;;;;;;11.50;10.30;;;21.60;99.90;;;;;;5049600;28;20623;-72
2023/06/16 07:26:35;;;;;;;15.13;10.25;;;21.70;99.90;;;;;;5047360;28;20203;-71
2023/06/16 07:29:02;;;;;;;12.45;11.15;;;21.80;99.90;;;;;;5047773;28;20206;-70
2023/06/16 07:31:29;;;;;;;15.85;10.10;;;21.90;99.90;;;;;;5047707;28;20358;-72
2023/06/16 07:33:56;;;;;;;12.73;10.88;;;21.90;99.90;;;;;;5046732;28;20288;-76
2023/06/16 07:36:23;;;;;;;11.25;9.57;;;22.10;99.90;;;;;;5043886;28;20202;-75
2023/06/16 07:38:50;;;;;;;12.88;9.43;;;22.20;99.90;;;;;;5047729;28;20702;-78
2023/06/16 07:41:18;;;;;;;12.10;11.00;;;22.20;99.90;;;;;;5050171;28;20246;-73
2023/06/16 07:43:47;;;;;;;11.52;10.35;;;22.30;99.90;;;;;;5049702;28;20230;-78
2023/06/16 07:46:14;;;;;;;14.82;11.00;;;22.80;99.90;;;;;;5050011;28;20202;-80
2023/06/16 07:48:40;;;;;;;13.40;9.88;;;23.10;99.90;;;;;;5046956;28;20211;-80
2023/06/16 07:51:08;;;;;;;18.10;11.93;;;23.00;99.90;;;;;;5044379;28;20285;-78
2023/06/16 07:53:35;;;;;;;10.82;9.73;;;22.80;99.90;;;;;;5048761;28;20214;-79
2023/06/16 07:56:03;;;;;;;12.50;9.50;;;22.70;99.90;;;;;;5048577;28;20211;-78
2023/06/16 07:58:32;;;;;;;12.27;11.00;;;23.20;99.90;;;;;;5047186;28;20243;-79
2023/06/16 08:00:59;;;;;;;11.93;10.00;;;23.30;99.90;;;;;;5048838;28;20246;-74
2023/06/16 08:03:25;;;;;;;11.80;10.35;;;23.60;99.90;;;;;;5046541;28;20672;-69
2023/06/16 08:05:54;;;;;;;9.73;8.93;;;23.60;99.90;;;;;;5049464;28;20710;-75
2023/06/16 08:08:22;;;;;;;10.25;9.25;;;23.50;99.90;;;;;;5043232;28;20203;-70
2023/06/16 08:10:49;;;;;;;9.30;8.40;;;23.60;99.90;;;;;;5038752;28;20237;-70
2023/06/16 08:13:16;;;;;;;10.48;9.50;;;23.70;99.90;;;;;;5047304;28;20210;-79
2023/06/16 08:15:44;;;;;;;9.93;8.88;;;23.60;99.90;;;;;;5048162;28;20211;-78
2023/06/16 08:18:11;;;;;;;8.55;7.65;;;23.60;99.90;;;;;;5046895;28;20203;-77
2023/06/16 08:20:38;;;;;;;10.65;9.50;;;23.60;99.90;;;;;;5048741;28;20207;-78
2023/06/16 08:23:05;;;;;;;12.95;9.57;;;23.40;99.90;;;;;;5050370;28;20234;-70
2023/06/16 08:25:31;;;;;;;10.82;8.50;;;23.40;99.90;;;;;;5050652;28;20250;-80
2023/06/16 08:28:00;;;;;;;14.73;10.82;;;23.60;99.90;;;;;;5048617;28;20207;-78
2023/06/16 08:30:26;;;;;;;13.38;10.20;;;23.80;99.90;;;;;;5044376;28;20207;-70
2023/06/16 08:32:55;;;;;;;12.55;10.10;;;24.00;99.90;;;;;;5048955;28;20249;-71
2023/06/16 08:35:22;;;;;;;11.15;10.05;;;24.20;99.90;;;;;;5049701;28;20213;-72
2023/06/16 08:37:49;;;;;;;10.65;9.43;;;24.00;99.90;;;;;;5048316;28;20212;-70
2023/06/16 08:40:16;;;;;;;11.60;8.70;;;24.20;99.90;;;;;;5048641;28;20214;-77
2023/06/16 08:42:44;;;;;;;9.45;8.55;;;24.40;99.90;;;;;;5047121;28;20235;-77
2023/06/16 08:45:13;;;;;;;11.50;10.30;;;24.90;99.90;;;;;;5048619;28;20249;-78
2023/06/16 08:47:40;;;;;;;10.95;9.93;;;25.80;99.90;;;;;;5048410;28;20242;-77
2023/06/16 08:50:09;;;;;;;11.77;10.35;;;26.00;99.90;;;;;;5044122;28;20229;-71
2023/06/16 08:52:39;;;;;;;14.50;12.82;;;26.80;99.90;;;;;;5048425;28;20314;-71
2023/06/16 08:55:09;;;;;;;12.20;10.73;;;27.20;99.90;;;;;;5049259;28;20674;-69
2023/06/16 08:57:44;;;;;;;12.15;9.25;;;27.20;99.90;;;;;;5049093;28;20234;-70
2023/06/16 09:00:13;;;;;;;10.80;7.32;;;27.20;99.90;;;;;;5050106;28;20214;-73
2023/06/16 09:02:41;;;;;;;12.65;11.38;;;26.70;99.90;;;;;;5036348;28;20209;-79
2023/06/16 09:05:11;;;;;;;11.15;8.07;;;26.70;99.90;;;;;;5050002;28;20206;-77
2023/06/16 09:07:39;;;;;;;11.13;7.82;;;26.60;99.90;;;;;;5049525;28;20575;-68
2023/06/16 09:10:07;;;;;;;8.00;7.30;;;26.30;99.90;;;;;;5045129;28;20670;-76
2023/06/16 09:12:35;;;;;;;10.00;7.55;;;27.20;99.90;;;;;;5050311;28;20313;-85
2023/06/16 09:15:02;;;;;;;7.93;7.18;;;27.80;99.90;;;;;;5050657;28;20217;-78
2023/06/16 09:17:29;;;;;;;8.75;7.95;;;27.70;99.90;;;;;;5045937;28;20203;-77
2023/06/16 09:19:57;;;;;;;8.60;7.80;;;26.50;99.90;;;;;;5047493;28;20206;-79
2023/06/16 09:22:27;;;;;;;10.18;7.00;;;26.70;99.90;;;;;;5046853;28;20653;-73
2023/06/16 09:24:55;;;;;;;7.07;6.45;;;26.60;99.90;;;;;;5044491;28;20224;-74
2023/06/16 09:27:23;;;;;;;18.52;16.80;;;26.40;99.90;;;;;;5047862;28;20198;-75
2023/06/16 09:29:57;;;;;;;8.90;8.20;;;26.80;99.90;;;;;;5048924;28;20645;-79
2023/06/16 09:32:24;;;;;;;7.53;6.93;;;27.40;99.90;;;;;;5051160;28;20262;-76
2023/06/16 09:34:52;;;;;;;9.80;7.03;;;28.70;99.90;;;;;;5050003;28;20217;-82
2023/06/16 09:37:20;;;;;;;8.40;7.72;;;28.80;99.90;;;;;;5046001;28;20253;-80
2023/06/16 09:39:48;;;;;;;10.38;7.90;;;30.80;99.90;;;;;;5051543;28;20202;-73
2023/06/16 09:42:16;;;;;;;8.60;7.55;;;33.80;99.90;;;;;;5050977;28;20249;-74
2023/06/16 09:44:43;;;;;;;9.27;6.18;;;36.10;99.90;;;;;;5051193;28;20272;-76
2023/06/16 09:47:14;;;;;;;7.18;6.50;;;36.60;99.90;;;;;;5050144;28;20238;-74
2023/06/16 09:49:41;;;;;;;7.32;6.18;;;35.90;99.90;;;;;;5041178;28;20210;-74
2023/06/16 09:52:08;;;;;;;8.27;7.43;;;33.90;99.90;;;;;;5049842;28;20257;-75
2023/06/16 09:54:36;;;;;;;7.65;6.85;;;33.40;99.90;;;;;;5050851;28;20246;-73
2023/06/16 09:57:06;;;;;;;8.55;7.72;;;36.50;99.90;;;;;;5050806;28;20206;-73
2023/06/16 09:59:33;;;;;;;7.70;6.93;;;37.00;99.90;;;;;;5051999;28;20380;-72
2023/06/16 10:02:01;;;;;;;8.23;7.43;;;37.30;99.90;;;;;;5051934;28;20210;-72
2023/06/16 10:04:31;;;;;;;7.28;6.53;;;37.80;99.90;;;;;;5051437;28;20234;-76
2023/06/16 10:07:02;;;;;;;9.15;6.88;;;39.70;99.90;;;;;;5050008;28;20690;-81
2023/06/16 10:09:35;;;;;;;7.55;6.80;;;40.00;99.90;;;;;;5052554;28;20221;-80
2023/06/16 10:12:06;;;;;;;7.85;7.25;;;39.30;99.90;;;;;;5051673;28;20592;-69
2023/06/16 10:14:34;;;;;;;6.65;6.15;;;41.00;99.90;;;;;;5051204;28;20275;-71
2023/06/16 10:17:02;;;;;;;7.68;6.97;;;41.80;99.90;;;;;;5050434;28;20233;-69
2023/06/16 10:19:33;;;;;;;6.63;6.03;;;42.30;99.90;;;;;;5051405;28;20206;-72
2023/06/16 10:22:01;;;;;;;7.88;7.18;;;40.20;99.90;;;;;;5049543;28;20241;-78
2023/06/16 10:24:28;;;;;;;7.43;6.82;;;39.20;99.90;;;;;;5051136;28;20206;-73
2023/06/16 10:26:55;;;;;;;7.97;6.13;;;39.80;99.90;;;;;;5050539;28;20256;-78
2023/06/16 10:29:25;;;;;;;7.00;5.93;;;37.10;99.90;;;;;;5050899;28;20648;-78
2023/06/16 10:32:03;;;;;;;7.53;6.85;;;32.70;99.90;;;;;;5050733;28;20361;-80
2023/06/16 10:34:30;;;;;;;8.77;6.60;;;30.50;99.90;;;;;;5049814;28;20213;-79
2023/06/16 10:36:58;;;;;;;6.97;6.47;;;29.30;99.90;;;;;;5049867;28;20242;-72
2023/06/16 10:39:25;;;;;;;7.90;7.00;;;28.60;99.90;;;;;;5051847;28;20297;-72
2023/06/16 10:41:55;;;;;;;7.47;6.75;;;28.30;99.90;;;;;;5049859;28;20242;-80
2023/06/16 10:44:28;;;;;;;7.85;7.22;;;28.40;99.90;;;;;;5049881;28;20241;-72
2023/06/16 10:47:36;;;;;;;6.78;6.18;;;28.40;99.90;;;;;;5050086;28;20218;-73
2023/06/16 10:50:04;;;;;;;8.77;7.22;;;28.20;99.90;;;;;;5036231;28;20290;-76
2023/06/16 10:52:51;;;;;;;7.53;6.80;;;27.60;99.90;;;;;;5051319;28;20226;-79
2023/06/16 10:55:26;;;;;;;14.25;9.25;;;28.00;99.90;;;;;;5050060;28;20214;-77
2023/06/16 10:58:26;;;;;;;8.13;7.53;;;27.60;99.90;;;;;;5050206;28;20202;-72
2023/06/16 11:01:26;;;;;;;8.98;8.20;;;27.90;99.90;;;;;;5050228;28;20214;-81
2023/06/16 11:04:01;;;;;;;7.68;7.07;;;27.70;99.90;;;;;;5046857;28;20242;-79
2023/06/16 11:06:28;;;;;;;8.50;7.82;;;28.00;99.90;;;;;;5046375;28;20555;-83
2023/06/16 11:08:57;;;;;;;7.30;6.70;;;28.20;99.90;;;;;;5047223;28;20260;-71
2023/06/16 11:11:33;;;;;;;7.05;6.45;;;28.10;99.90;;;;;;5051557;28;20203;-74
2023/06/16 11:14:01;;;;;;;17.05;7.43;;;28.00;99.90;;;;;;5051119;28;20202;-81
2023/06/16 11:16:30;;;;;;;7.45;6.85;;;28.10;99.90;;;;;;5050682;28;20203;-87
2023/06/16 11:18:58;;;;;;;6.97;6.47;;;28.00;99.90;;;;;;5050538;28;20254;-79
2023/06/16 11:21:30;;;;;;;6.93;6.32;;;28.10;99.90;;;;;;5049405;28;20241;-69
2023/06/16 11:24:08;;;;;;;6.85;6.18;;;28.00;99.90;;;;;;5049750;28;20222;-70
2023/06/16 11:26:35;;;;;;;7.57;6.90;;;28.10;99.90;;;;;;5049406;28;20292;-70
2023/06/16 11:29:02;;;;;;;7.80;6.97;;;27.70;99.90;;;;;;5050203;28;20199;-77
2023/06/16 11:31:31;;;;;;;7.85;7.05;;;27.90;99.90;;;;;;5049803;28;20646;-70
2023/06/16 11:33:58;;;;;;;6.30;5.80;;;27.80;99.90;;;;;;5049772;28;20288;-69
2023/06/16 11:36:25;;;;;;;6.97;6.13;;;28.00;99.90;;;;;;5046611;28;20207;-74
2023/06/16 11:38:55;;;;;;;8.00;7.25;;;27.90;99.90;;;;;;5044474;28;20238;-79
2023/06/16 11:41:27;;;;;;;6.65;6.15;;;28.10;99.90;;;;;;5050237;28;20203;-74
2023/06/16 11:43:54;;;;;;;6.78;6.18;;;28.10;99.90;;;;;;5049838;28;20210;-82
2023/06/16 11:46:24;;;;;;;7.22;6.50;;;28.20;99.90;;;;;;5047999;28;20203;-76
2023/06/16 11:48:53;;;;;;;6.43;5.93;;;27.80;99.90;;;;;;5042307;28;20230;-69
2023/06/16 11:51:20;;;;;;;5.32;4.88;;;27.80;99.90;;;;;;5049784;28;20261;-76
2023/06/16 11:53:47;;;;;;;7.20;5.60;;;27.90;99.90;;;;;;5049967;28;20266;-80
2023/06/16 11:56:16;;;;;;;8.65;5.97;;;28.00;99.90;;;;;;5049003;28;20238;-79
2023/06/16 11:58:44;;;;;;;8.90;6.15;;;28.00;99.90;;;;;;5049168;28;20234;-76
2023/06/16 12:01:14;;;;;;;7.45;6.75;;;28.10;99.90;;;;;;5048655;28;20206;-81
2023/06/16 12:03:42;;;;;;;12.23;6.50;;;28.00;99.90;;;;;;5050152;28;20215;-70
2023/06/16 12:06:12;;;;;;;6.65;5.95;;;28.10;99.90;;;;;;5048568;28;20242;-81
2023/06/16 12:08:42;;;;;;;10.50;6.88;;;28.10;99.90;;;;;;5048648;28;20203;-80
2023/06/16 12:11:10;;;;;;;7.05;6.45;;;28.10;99.90;;;;;;5043563;28;20213;-79
2023/06/16 12:13:38;;;;;;;6.53;5.97;;;28.00;99.90;;;;;;5047265;28;20773;-69
2023/06/16 12:16:05;;;;;;;6.88;6.30;;;27.90;99.90;;;;;;5050720;28;20246;-72
2023/06/16 12:18:33;;;;;;;6.30;5.80;;;28.10;99.90;;;;;;5049092;28;20246;-70
2023/06/16 12:21:16;;;;;;;6.28;5.72;;;28.00;99.90;;;;;;5048747;28;20235;-83
2023/06/16 12:23:48;;;;;;;8.50;6.22;;;28.10;99.90;;;;;;5048938;28;20285;-79
2023/06/16 12:26:33;;;;;;;6.85;6.35;;;28.10;99.90;;;;;;5049876;28;20207;-80
2023/06/16 12:29:08;;;;;;;6.70;6.20;;;28.10;99.90;;;;;;5048464;28;20264;-70
2023/06/16 12:31:36;;;;;;;6.57;5.97;;;28.10;99.90;;;;;;5044020;28;20253;-70
2023/06/16 12:34:02;;;;;;;6.25;5.75;;;28.20;99.90;;;;;;5043999;28;20249;-82
2023/06/16 12:36:31;;;;;;;6.78;6.18;;;27.90;99.90;;;;;;5049131;28;20231;-69
2023/06/16 12:38:59;;;;;;;6.22;5.50;;;28.00;99.90;;;;;;5047669;28;20297;-80
2023/06/16 12:41:29;;;;;;;6.07;5.57;;;28.10;99.90;;;;;;5048280;28;20674;-70
2023/06/16 12:43:56;;;;;;;6.53;5.57;;;28.40;99.90;;;;;;5043998;28;20219;-69
2023/06/16 12:46:22;;;;;;;8.50;6.35;;;28.40;99.90;;;;;;5048780;28;20697;-72